Time;durP1;ratioP1;P1;durP2;ratioP2;P2;SDS_P1;SDS_P2;PMS_P1;PMS_P2;Temp;Humidity;BMP_temperature;BMP_pressure;BME280_temperature;BME280_humidity;BME280_pressure;Samples;Min_cycle;Max_cycle;Signal;HPM_P1;HPM_P2
2022/08/09 06:59:39;;;;;;;9.13;8.15;;;29.00;53.70;;;;;;4772936;54;77073;-28
2022/08/09 07:04:40;;;;;;;9.65;8.65;;;28.80;52.70;;;;;;4879162;55;21042;-28
2022/08/09 07:09:43;;;;;;;8.77;7.87;;;28.70;52.10;;;;;;4854781;55;21501;-28
2022/08/09 07:14:45;;;;;;;9.10;8.15;;;28.70;51.70;;;;;;4983747;55;21604;-33
2022/08/09 07:19:46;;;;;;;10.35;7.95;;;28.70;51.40;;;;;;5228890;55;20987;-29
2022/08/09 07:24:47;;;;;;;11.18;8.80;;;28.70;50.80;;;;;;4759300;55;23155;-30
2022/08/09 07:29:48;;;;;;;11.93;8.27;;;28.60;50.70;;;;;;4830550;55;1755630;-26
2022/08/09 07:34:49;;;;;;;12.77;8.32;;;28.30;51.70;;;;;;4868515;55;21437;-34
2022/08/09 07:39:50;;;;;;;10.65;8.48;;;28.10;51.30;;;;;;4937668;55;21530;-30
2022/08/09 07:44:50;;;;;;;12.77;8.93;;;28.00;51.10;;;;;;4897466;55;21047;-33
2022/08/09 07:49:51;;;;;;;13.18;10.07;;;27.90;50.80;;;;;;4709109;55;21091;-32
2022/08/09 07:54:52;;;;;;;14.43;11.35;;;27.70;51.50;;;;;;4874135;55;23401;-30
2022/08/09 07:59:53;;;;;;;18.50;14.07;;;27.50;51.70;;;;;;4714155;56;21007;-32
2022/08/09 08:04:54;;;;;;;27.05;18.45;;;27.40;51.60;;;;;;4788130;55;21028;-31
2022/08/09 08:09:54;;;;;;;32.10;25.85;;;27.30;51.70;;;;;;4803852;55;21032;-28
2022/08/09 08:14:55;;;;;;;47.85;33.58;;;27.30;51.90;;;;;;4752984;55;21558;-31
2022/08/09 08:19:56;;;;;;;54.72;38.88;;;27.20;51.90;;;;;;4814315;55;21474;-28
2022/08/09 08:24:57;;;;;;;54.88;42.28;;;27.20;51.90;;;;;;4982301;55;21053;-28
2022/08/09 08:29:58;;;;;;;53.33;41.58;;;27.10;52.00;;;;;;4706584;55;21007;-30
2022/08/09 08:34:59;;;;;;;52.28;38.78;;;27.10;52.20;;;;;;4731396;55;21071;-29
2022/08/09 08:40:02;;;;;;;46.67;38.22;;;27.10;52.20;;;;;;4743252;55;20995;-27
2022/08/09 08:45:04;;;;;;;47.05;37.95;;;27.10;52.60;;;;;;4820354;55;21076;-30
2022/08/09 08:50:06;;;;;;;53.00;39.45;;;27.10;52.60;;;;;;4688528;59;21470;-30
2022/08/09 08:55:08;;;;;;;60.92;46.03;;;27.10;52.70;;;;;;5027873;55;21072;-30
2022/08/09 09:00:11;;;;;;;70.75;49.83;;;27.00;52.50;;;;;;4873499;55;20983;-30
2022/08/09 09:05:13;;;;;;;78.37;48.97;;;27.00;52.90;;;;;;4858972;55;21466;-30
2022/08/09 09:10:14;;;;;;;60.75;45.78;;;27.00;53.10;;;;;;4927575;55;21088;-32
2022/08/09 09:15:15;;;;;;;62.45;47.03;;;26.90;52.50;;;;;;4750877;55;21035;-37
2022/08/09 09:20:16;;;;;;;71.12;50.97;;;27.20;53.70;;;;;;4688192;59;21656;-28
2022/08/09 09:25:40;;;;;;;85.22;59.47;;;27.30;52.90;;;;;;4787121;55;21060;-28
2022/08/09 09:30:53;;;;;;;80.60;55.53;;;27.10;52.90;;;;;;4707857;55;21488;-33
2022/08/09 09:35:59;;;;;;;71.78;51.30;;;27.00;52.70;;;;;;4688350;59;21011;-32
2022/08/09 09:41:00;;;;;;;60.67;43.05;;;27.00;52.70;;;;;;4872385;55;20992;-26
2022/08/09 09:46:01;;;;;;;53.40;38.65;;;27.00;53.00;;;;;;4914606;55;21015;-29
2022/08/09 09:51:02;;;;;;;49.92;35.78;;;26.90;52.90;;;;;;4742347;55;21561;-36
2022/08/09 09:56:03;;;;;;;52.55;33.30;;;26.90;53.10;;;;;;4688200;59;21027;-27
2022/08/09 10:01:04;;;;;;;47.15;34.50;;;26.80;53.30;;;;;;4850353;55;21450;-33
2022/08/09 10:06:06;;;;;;;53.08;38.38;;;26.80;53.10;;;;;;4768478;55;21083;-26
2022/08/09 10:11:22;;;;;;;57.03;40.83;;;26.80;53.30;;;;;;4953254;55;21080;-39
2022/08/09 10:16:32;;;;;;;53.38;40.08;;;26.80;53.10;;;;;;4688244;59;21012;-28
2022/08/09 10:21:34;;;;;;;58.92;43.95;;;26.80;53.10;;;;;;4781726;55;21055;-26
2022/08/09 10:26:35;;;;;;;69.25;47.45;;;26.70;53.10;;;;;;4704829;55;21008;-35
2022/08/09 10:31:38;;;;;;;68.22;49.58;;;26.80;53.60;;;;;;4688424;59;21019;-38
2022/08/09 10:36:39;;;;;;;75.80;52.50;;;27.20;53.60;;;;;;4793971;55;21027;-30
2022/08/09 10:41:40;;;;;;;82.70;60.63;;;27.50;54.20;;;;;;4721358;55;21020;-31
2022/08/09 10:46:54;;;;;;;75.90;54.55;;;27.70;53.90;;;;;;4687943;59;21568;-31
2022/08/09 10:52:28;;;;;;;63.47;46.65;;;27.90;53.70;;;;;;4737022;55;21056;-29
2022/08/09 10:57:35;;;;;;;60.63;46.25;;;28.00;53.20;;;;;;4811492;55;21113;-36
2022/08/09 11:02:39;;;;;;;59.65;43.58;;;28.10;53.70;;;;;;4712865;55;21502;-35
2022/08/09 11:07:40;;;;;;;60.15;43.25;;;28.10;54.10;;;;;;4746957;55;22136;-32
2022/08/09 11:13:11;;;;;;;54.60;41.08;;;28.20;54.00;;;;;;4690055;55;21537;-30
2022/08/09 11:18:42;;;;;;;56.33;42.35;;;28.20;54.20;;;;;;4689122;55;21020;-32
2022/08/09 11:23:58;;;;;;;48.17;37.33;;;28.20;54.30;;;;;;4711502;55;21647;-29
2022/08/09 11:28:59;;;;;;;51.33;37.92;;;28.30;54.50;;;;;;4695224;55;21008;-32
2022/08/09 11:34:06;;;;;;;52.25;37.90;;;28.30;54.30;;;;;;4796882;55;21007;-31
2022/08/09 11:39:06;;;;;;;48.90;36.53;;;28.30;54.40;;;;;;4719842;55;21662;-29
2022/08/09 11:44:07;;;;;;;45.60;37.03;;;28.30;54.50;;;;;;5112367;55;20993;-31
2022/08/09 11:49:08;;;;;;;50.58;36.28;;;28.30;54.60;;;;;;4688521;59;21506;-31
2022/08/09 11:54:17;;;;;;;45.33;35.78;;;28.40;54.70;;;;;;4714858;55;21016;-30
2022/08/09 11:59:26;;;;;;;46.35;35.78;;;28.40;54.80;;;;;;4687674;59;21048;-30
2022/08/09 12:04:27;;;;;;;46.05;34.28;;;28.40;54.90;;;;;;4718288;55;21003;-34
2022/08/09 12:09:32;;;;;;;44.03;34.80;;;28.40;55.10;;;;;;4858813;55;21044;-33
2022/08/09 12:14:33;;;;;;;43.30;33.85;;;28.40;55.10;;;;;;4821357;55;21490;-37
2022/08/09 12:19:34;;;;;;;43.67;33.80;;;28.40;54.90;;;;;;4688180;59;21585;-32
2022/08/09 12:24:35;;;;;;;44.92;33.53;;;28.40;55.00;;;;;;4705945;55;21012;-31
2022/08/09 12:29:36;;;;;;;41.83;31.73;;;28.40;55.00;;;;;;4715404;55;21554;-31
2022/08/09 12:34:39;;;;;;;38.70;31.40;;;28.40;55.10;;;;;;4756783;55;21601;-32
2022/08/09 12:39:39;;;;;;;39.90;31.15;;;28.40;55.10;;;;;;4825004;55;21027;-30
2022/08/09 12:44:41;;;;;;;36.45;30.37;;;28.40;55.10;;;;;;4703361;55;21024;-30
2022/08/09 12:49:42;;;;;;;37.78;30.73;;;28.40;55.20;;;;;;4784428;55;21011;-32
2022/08/09 12:54:55;;;;;;;37.15;29.50;;;28.50;55.30;;;;;;4724486;55;21004;-34
2022/08/09 13:00:16;;;;;;;37.50;30.48;;;28.50;55.40;;;;;;4759391;55;21178;-35
2022/08/09 13:05:18;;;;;;;37.30;30.08;;;28.50;55.40;;;;;;4695134;55;21095;-33
2022/08/09 13:10:19;;;;;;;36.60;29.77;;;28.50;55.40;;;;;;5042270;55;21071;-35
2022/08/09 13:15:20;;;;;;;35.28;28.38;;;28.50;55.60;;;;;;4846783;55;21486;-35
2022/08/09 13:32:14;;;;;;;37.10;29.63;;;28.50;55.10;;;;;;5039258;51;28583;-29
2022/08/09 13:37:16;;;;;;;33.30;28.50;;;28.50;55.80;;;;;;5156656;50;21122;-26
2022/08/09 13:42:16;;;;;;;34.33;28.73;;;28.50;55.80;;;;;;5073358;50;20999;-30
2022/08/09 13:47:18;;;;;;;34.95;28.33;;;28.50;55.90;;;;;;5192680;50;20975;-26
2022/08/09 13:52:20;;;;;;;32.83;27.62;;;28.50;56.50;;;;;;5071966;54;21046;-38
2022/08/09 13:57:21;;;;;;;33.08;27.00;;;28.50;56.10;;;;;;5070848;51;21533;-30
2022/08/09 14:02:21;;;;;;;32.58;26.70;;;28.50;56.00;;;;;;5081492;50;21026;-27
2022/08/09 14:07:22;;;;;;;32.00;27.02;;;28.50;56.00;;;;;;5095776;50;20991;-34
2022/08/09 14:12:23;;;;;;;32.30;26.80;;;28.50;56.00;;;;;;5096715;50;20993;-32
2022/08/09 14:17:26;;;;;;;31.30;26.10;;;28.50;56.00;;;;;;5067931;50;21049;-26
2022/08/09 14:22:27;;;;;;;30.37;25.90;;;28.50;56.20;;;;;;5031806;51;20982;-34
2022/08/09 14:27:28;;;;;;;32.50;26.42;;;28.50;56.30;;;;;;5010262;55;21476;-36
2022/08/09 14:32:29;;;;;;;31.20;25.60;;;28.50;56.10;;;;;;5030177;51;20978;-36
2022/08/09 14:37:30;;;;;;;28.40;24.83;;;28.50;56.20;;;;;;5056995;51;21010;-35
2022/08/09 14:42:31;;;;;;;31.00;25.45;;;28.50;56.10;;;;;;5008382;51;21475;-37
2022/08/09 14:47:31;;;;;;;30.30;25.58;;;28.50;56.30;;;;;;5008703;55;20988;-32
2022/08/09 14:52:34;;;;;;;31.37;25.98;;;28.50;56.40;;;;;;5050256;51;21021;-28
2022/08/09 14:57:35;;;;;;;29.95;24.85;;;28.50;56.20;;;;;;5058269;51;20954;-32
2022/08/09 15:02:35;;;;;;;30.02;24.95;;;28.50;56.20;;;;;;5040573;51;20982;-34
2022/08/09 15:07:36;;;;;;;30.30;24.87;;;28.50;56.20;;;;;;5020492;51;20986;-30
2022/08/09 15:12:37;;;;;;;28.23;24.73;;;28.50;56.30;;;;;;5030942;51;21025;-32
2022/08/09 15:17:38;;;;;;;29.77;24.92;;;28.50;56.30;;;;;;5030321;51;21002;-32
2022/08/09 15:22:39;;;;;;;29.80;25.50;;;28.50;56.30;;;;;;5011138;51;21002;-30
2022/08/09 15:27:40;;;;;;;29.27;24.85;;;28.50;56.40;;;;;;5043481;51;20959;-35
2022/08/09 15:32:41;;;;;;;29.50;23.92;;;28.50;56.90;;;;;;5032146;51;20985;-26
2022/08/09 15:37:43;;;;;;;29.30;24.90;;;28.50;56.50;;;;;;5007468;53;20994;-26
2022/08/09 15:42:45;;;;;;;28.40;24.52;;;28.60;56.40;;;;;;5048903;51;21468;-37
2022/08/09 15:47:47;;;;;;;30.37;24.58;;;28.60;56.40;;;;;;5058060;51;21037;-37
2022/08/09 15:52:47;;;;;;;30.95;25.55;;;28.60;56.40;;;;;;5029607;51;21076;-29
2022/08/09 15:57:49;;;;;;;28.45;24.50;;;28.50;56.30;;;;;;5007618;55;21029;-35
2022/08/09 16:02:52;;;;;;;29.10;25.20;;;28.60;56.40;;;;;;5037747;51;20989;-28
2022/08/09 16:07:52;;;;;;;28.90;25.10;;;28.60;56.40;;;;;;5025225;51;21005;-34
2022/08/09 16:12:54;;;;;;;27.90;24.77;;;28.60;56.40;;;;;;5091858;51;21002;-28
2022/08/09 16:17:55;;;;;;;26.98;23.77;;;28.60;56.40;;;;;;5055226;51;21038;-38
2022/08/09 16:22:55;;;;;;;28.08;24.23;;;28.60;56.40;;;;;;5007323;55;21029;-34
2022/08/09 16:27:59;;;;;;;31.37;25.70;;;28.60;56.40;;;;;;5007743;55;21717;-36
2022/08/09 16:33:07;;;;;;;27.75;23.92;;;28.60;56.50;;;;;;5072783;51;21499;-38
2022/08/09 16:38:08;;;;;;;27.62;23.50;;;28.60;56.50;;;;;;5010035;51;21014;-33
2022/08/09 16:43:10;;;;;;;27.80;24.30;;;28.60;56.50;;;;;;5038633;51;21516;-38
2022/08/09 16:48:11;;;;;;;29.58;25.15;;;28.60;56.60;;;;;;5025810;51;21487;-34
2022/08/09 16:53:11;;;;;;;28.30;24.63;;;28.60;56.50;;;;;;5011966;51;21022;-35
2022/08/09 16:58:14;;;;;;;29.48;24.17;;;28.60;56.60;;;;;;5027038;51;21034;-33
2022/08/09 17:03:15;;;;;;;27.85;24.45;;;28.60;56.50;;;;;;5014385;51;21041;-26
2022/08/09 17:08:19;;;;;;;25.90;23.10;;;28.60;56.60;;;;;;5041699;51;20979;-37
2022/08/09 17:13:20;;;;;;;26.75;23.80;;;28.60;56.60;;;;;;5010677;51;21148;-25
2022/08/09 17:18:20;;;;;;;27.08;24.00;;;28.60;56.60;;;;;;5026284;51;21090;-27
2022/08/09 17:23:22;;;;;;;29.23;24.23;;;28.60;56.60;;;;;;5030160;51;21555;-29
2022/08/09 17:28:23;;;;;;;28.55;24.08;;;28.60;56.70;;;;;;5057382;51;21482;-33
2022/08/09 17:33:24;;;;;;;25.33;22.62;;;28.60;56.70;;;;;;5009427;51;20981;-32
2022/08/09 17:38:24;;;;;;;25.50;22.80;;;28.50;56.60;;;;;;5007841;51;21416;-34
2022/08/09 17:43:25;;;;;;;26.45;22.15;;;28.50;56.60;;;;;;5025482;51;21044;-28
2022/08/09 17:48:26;;;;;;;24.70;21.92;;;28.50;56.60;;;;;;5025097;51;21077;-26
2022/08/09 17:53:27;;;;;;;26.02;22.35;;;28.50;56.70;;;;;;5034997;51;21071;-27
2022/08/09 17:58:29;;;;;;;25.15;22.42;;;28.50;56.60;;;;;;5012354;51;20975;-28
2022/08/09 18:03:30;;;;;;;24.35;21.40;;;28.50;56.70;;;;;;5075445;51;20970;-26
2022/08/09 18:08:31;;;;;;;24.00;21.50;;;28.50;56.70;;;;;;5057625;51;20977;-30
2022/08/09 18:13:32;;;;;;;23.70;21.20;;;28.50;56.70;;;;;;5024182;51;21037;-27
2022/08/09 18:18:35;;;;;;;25.12;21.55;;;28.50;56.80;;;;;;5015934;51;21078;-27
2022/08/09 18:23:36;;;;;;;25.65;22.20;;;28.50;56.70;;;;;;5031813;51;21468;-35
2022/08/09 18:28:36;;;;;;;25.17;20.95;;;28.50;56.70;;;;;;5044831;51;21025;-27
2022/08/09 18:33:37;;;;;;;22.55;20.08;;;28.60;56.80;;;;;;5061542;51;21472;-35
2022/08/09 18:38:38;;;;;;;24.02;20.90;;;28.50;56.70;;;;;;5027653;51;20971;-33
2022/08/09 18:43:39;;;;;;;22.48;19.77;;;28.50;56.80;;;;;;5032250;51;21464;-31
2022/08/09 18:48:40;;;;;;;22.55;20.17;;;28.50;57.40;;;;;;5024484;51;21041;-27
2022/08/09 18:53:40;;;;;;;23.40;20.42;;;28.50;56.80;;;;;;5029729;51;20970;-26
2022/08/09 18:58:41;;;;;;;22.65;20.30;;;28.50;56.90;;;;;;5016886;51;20970;-28
2022/08/09 19:03:42;;;;;;;22.48;19.87;;;28.50;56.80;;;;;;5008679;55;20974;-33
2022/08/09 19:08:43;;;;;;;21.98;19.42;;;28.50;56.90;;;;;;5031989;51;20975;-38
2022/08/09 19:13:43;;;;;;;21.27;18.92;;;28.50;56.90;;;;;;5008839;51;21479;-33
2022/08/09 19:18:44;;;;;;;21.42;19.12;;;28.50;56.80;;;;;;5007494;55;21010;-36
2022/08/09 19:23:45;;;;;;;21.23;18.87;;;28.50;56.90;;;;;;5008819;51;21001;-44
2022/08/09 19:28:46;;;;;;;22.25;18.77;;;28.50;57.40;;;;;;5040227;51;21487;-33
2022/08/09 19:33:47;;;;;;;21.87;19.45;;;28.50;56.90;;;;;;5015028;51;21048;-28
2022/08/09 19:38:49;;;;;;;20.62;18.52;;;28.50;57.00;;;;;;5033621;51;20983;-36
2022/08/09 19:43:50;;;;;;;20.10;18.10;;;28.50;56.90;;;;;;5008205;51;21436;-38
2022/08/09 19:48:53;;;;;;;20.35;18.15;;;28.50;56.90;;;;;;5013061;51;20990;-33
2022/08/09 19:53:53;;;;;;;20.17;18.00;;;28.50;56.90;;;;;;5028840;51;21472;-28
2022/08/09 19:58:58;;;;;;;19.98;17.37;;;28.50;56.90;;;;;;5007789;52;21049;-35
2022/08/09 20:03:59;;;;;;;20.25;18.10;;;28.50;56.90;;;;;;5031470;51;20983;-31
2022/08/09 20:09:00;;;;;;;19.48;17.37;;;28.50;56.90;;;;;;5029766;51;20990;-33
2022/08/09 20:14:00;;;;;;;19.10;16.85;;;28.50;56.90;;;;;;5014195;51;21531;-31
2022/08/09 20:19:02;;;;;;;19.70;17.60;;;28.50;57.00;;;;;;5007231;55;21030;-28
2022/08/09 20:24:03;;;;;;;19.10;17.20;;;28.50;56.90;;;;;;5033535;51;21034;-30
2022/08/09 20:29:04;;;;;;;18.00;16.20;;;28.50;57.00;;;;;;5030178;51;20958;-31
2022/08/09 20:34:05;;;;;;;20.20;18.05;;;28.50;56.90;;;;;;5031178;51;20966;-34
2022/08/09 20:39:06;;;;;;;18.23;16.30;;;28.50;57.00;;;;;;5022131;51;21530;-33
2022/08/09 20:44:07;;;;;;;18.23;16.40;;;28.50;57.00;;;;;;5031698;51;21006;-30
2022/08/09 20:49:07;;;;;;;19.02;16.52;;;28.50;57.00;;;;;;5054090;51;21002;-34
2022/08/09 20:54:09;;;;;;;18.25;16.45;;;28.50;57.00;;;;;;5007688;51;21463;-33
2022/08/09 20:59:10;;;;;;;17.52;15.50;;;28.50;57.00;;;;;;5030307;51;21042;-27
2022/08/09 21:04:11;;;;;;;18.62;16.60;;;28.50;57.00;;;;;;5089202;51;21026;-33
2022/08/09 21:09:12;;;;;;;17.15;15.45;;;28.50;57.00;;;;;;5036668;51;20998;-27
2022/08/09 21:14:13;;;;;;;18.45;15.88;;;28.50;57.00;;;;;;5019862;51;21053;-27
2022/08/09 21:19:17;;;;;;;17.77;15.98;;;28.50;57.00;;;;;;5035670;51;21073;-29
2022/08/09 21:24:18;;;;;;;17.37;15.27;;;28.50;57.10;;;;;;5015745;51;21532;-27
2022/08/09 21:29:19;;;;;;;17.62;15.73;;;28.50;57.10;;;;;;5009064;51;21021;-37
2022/08/09 21:34:20;;;;;;;17.02;15.23;;;28.50;57.10;;;;;;5027648;51;20998;-35
2022/08/09 21:39:21;;;;;;;17.08;15.07;;;28.50;57.10;;;;;;5018594;51;21014;-36
2022/08/09 21:44:21;;;;;;;17.48;15.68;;;28.40;57.00;;;;;;5023747;51;21400;-37
2022/08/09 21:49:22;;;;;;;16.08;14.38;;;28.50;57.10;;;;;;5013328;51;20978;-36
2022/08/09 21:54:25;;;;;;;17.25;15.45;;;28.50;57.20;;;;;;5008014;53;20985;-33
2022/08/09 21:59:26;;;;;;;16.05;14.35;;;28.50;57.10;;;;;;5012642;51;22186;-37
2022/08/09 22:04:27;;;;;;;15.65;14.10;;;28.50;57.10;;;;;;5008548;55;21096;-32
2022/08/09 22:09:27;;;;;;;16.73;14.98;;;28.50;57.10;;;;;;5016321;51;21076;-30
2022/08/09 22:14:28;;;;;;;15.80;14.20;;;28.50;57.10;;;;;;5038142;51;21033;-37
2022/08/09 22:19:29;;;;;;;16.70;14.25;;;28.50;57.10;;;;;;5019454;51;21527;-35
2022/08/09 22:24:30;;;;;;;14.32;12.82;;;28.50;57.20;;;;;;5035101;51;21464;-38
2022/08/09 22:29:31;;;;;;;14.50;13.00;;;28.50;57.20;;;;;;5009739;51;20995;-36
2022/08/09 22:34:32;;;;;;;14.90;13.35;;;28.50;57.10;;;;;;5057763;51;21006;-35
2022/08/09 22:39:33;;;;;;;14.63;13.23;;;28.50;57.20;;;;;;5039519;51;21467;-35
2022/08/09 22:44:34;;;;;;;16.25;13.82;;;28.40;57.20;;;;;;5011312;51;20990;-34
2022/08/09 22:49:35;;;;;;;14.05;12.37;;;28.50;57.20;;;;;;5031957;51;20997;-36
2022/08/09 22:54:35;;;;;;;14.52;13.02;;;28.50;57.20;;;;;;5021036;51;21057;-26
2022/08/09 22:59:36;;;;;;;14.25;12.85;;;28.50;57.50;;;;;;5031202;51;21045;-34
2022/08/09 23:04:40;;;;;;;14.75;13.35;;;28.50;57.30;;;;;;5021309;51;20982;-31
2022/08/09 23:09:40;;;;;;;14.48;13.07;;;28.50;57.60;;;;;;5032928;51;21456;-32
2022/08/09 23:14:41;;;;;;;13.93;12.48;;;28.50;57.30;;;;;;5021444;51;20958;-33
2022/08/09 23:19:42;;;;;;;13.85;12.45;;;28.50;57.40;;;;;;5007513;55;21069;-30
2022/08/09 23:24:43;;;;;;;14.43;12.98;;;28.50;57.50;;;;;;5019189;51;20985;-36
2022/08/09 23:29:44;;;;;;;14.10;12.70;;;28.50;57.50;;;;;;5012242;51;21101;-36
2022/08/09 23:34:45;;;;;;;14.38;12.88;;;28.50;57.40;;;;;;5029112;51;20998;-35
2022/08/09 23:39:45;;;;;;;13.43;12.13;;;28.50;57.50;;;;;;5037226;51;21040;-36
2022/08/09 23:44:46;;;;;;;14.18;12.82;;;28.40;57.40;;;;;;5033116;51;21002;-32
2022/08/09 23:49:48;;;;;;;13.70;12.35;;;28.50;57.60;;;;;;5047741;51;21006;-26
2022/08/09 23:54:49;;;;;;;13.40;12.10;;;28.50;57.50;;;;;;5011959;51;21002;-34
